createdAt,value
2019-05-23T04:52:11.647Z,73.90
2019-05-23T04:54:41.095Z,73.70
2019-05-23T04:57:10.840Z,73.20
2019-05-23T04:59:53.384Z,73.00
2019-05-23T05:02:26.951Z,73.00
2019-05-23T05:04:54.772Z,73.00
2019-05-23T05:07:27.855Z,72.90
2019-05-23T05:09:56.752Z,72.40
2019-05-23T05:12:28.411Z,71.80
2019-05-23T05:14:58.230Z,71.70
2019-05-23T05:17:27.334Z,71.00
2019-05-23T05:19:57.195Z,70.10
2019-05-23T05:22:28.829Z,69.90
2019-05-23T05:24:57.539Z,69.50
2019-05-23T05:27:29.704Z,69.80
2019-05-23T05:30:02.754Z,70.30
2019-05-23T05:32:44.991Z,70.50
2019-05-23T05:35:09.069Z,70.50
2019-05-23T05:37:39.233Z,70.50
2019-05-23T05:40:09.361Z,69.90
2019-05-23T05:42:41.726Z,69.50
2019-05-23T05:45:10.663Z,68.40
2019-05-23T05:47:40.569Z,68.30
2019-05-23T05:50:13.392Z,67.60
2019-05-23T05:52:44.082Z,68.00
2019-05-23T05:55:14.205Z,66.60
2019-05-23T05:57:43.593Z,66.20
2019-05-23T06:00:29.288Z,66.10
2019-05-23T06:03:04.648Z,66.90
2019-05-23T06:05:43.954Z,67.40
2019-05-23T06:08:14.300Z,67.10
2019-05-23T06:10:43.497Z,67.50
2019-05-23T06:13:12.335Z,67.40
2019-05-23T06:15:42.428Z,67.50
2019-05-23T06:18:12.862Z,68.40
2019-05-23T06:20:45.494Z,68.90
2019-05-23T06:23:16.317Z,69.30
2019-05-23T06:25:46.086Z,69.60
2019-05-23T06:28:18.913Z,68.70
2019-05-23T06:30:48.559Z,67.70
2019-05-23T06:33:23.144Z,66.60
2019-05-23T06:35:51.706Z,64.70
2019-05-23T06:38:21.365Z,61.70
2019-05-23T06:40:51.923Z,61.30
2019-05-23T06:43:23.541Z,59.60
2019-05-23T06:45:53.043Z,60.00
2019-05-23T06:48:22.142Z,59.10
2019-05-23T06:50:50.964Z,57.90
2019-05-23T06:53:20.300Z,56.60
2019-05-23T06:55:50.569Z,57.20
2019-05-23T06:58:21.222Z,57.00
2019-05-23T07:00:50.969Z,56.80
2019-05-23T07:04:11.619Z,57.00
2019-05-23T07:09:42.894Z,58.00
2019-05-23T07:12:13.000Z,57.90
2019-05-23T07:14:42.882Z,57.20
2019-05-23T07:29:50.070Z,55.70
2019-05-23T07:32:43.033Z,56.50
2019-05-23T07:38:24.158Z,55.10
2019-05-23T07:40:56.587Z,56.10
2019-05-23T07:43:27.917Z,56.60
2019-05-23T07:46:19.874Z,56.70
2019-05-23T07:50:14.768Z,56.70
2019-05-23T08:11:12.169Z,51.70
2019-05-23T08:36:59.037Z,50.90
2019-05-23T10:40:19.312Z,33.10
2019-05-23T10:43:15.805Z,32.30
2019-05-23T10:45:51.735Z,32.10
2019-05-23T10:49:00.782Z,32.50
2019-05-23T10:51:44.590Z,31.80
2019-05-23T11:22:45.812Z,28.60
2019-05-23T11:44:56.027Z,32.50
2019-05-23T11:47:31.058Z,32.40
2019-05-23T11:49:58.145Z,33.40
2019-05-23T11:52:27.747Z,31.50
2019-05-23T11:54:58.935Z,30.70
2019-05-23T11:57:28.500Z,30.10
2019-05-23T11:59:59.374Z,30.00
2019-05-23T12:02:36.191Z,29.90
2019-05-23T12:05:08.961Z,29.40
2019-05-23T12:07:44.441Z,27.50
2019-05-23T12:10:15.593Z,26.90
2019-05-23T12:12:45.944Z,26.50
2019-05-23T12:15:24.128Z,25.70
2019-05-23T12:17:58.233Z,25.80
2019-05-23T12:20:27.798Z,25.30
2019-05-23T12:22:57.668Z,25.00
2019-05-23T12:25:32.990Z,25.00
2019-05-23T12:28:02.515Z,25.40
2019-05-23T12:30:33.837Z,25.20
2019-05-23T12:33:02.693Z,25.00
2019-05-23T12:35:32.941Z,24.60
2019-05-23T12:38:02.907Z,24.60
2019-05-23T12:40:34.179Z,24.40
2019-05-23T12:43:04.877Z,25.10
2019-05-23T12:45:37.614Z,25.20
2019-05-23T12:48:08.219Z,25.80
2019-05-23T12:50:42.380Z,26.00
2019-05-23T12:53:15.066Z,26.20
2019-05-23T12:55:45.939Z,25.80
2019-05-23T12:58:16.353Z,25.80
2019-05-23T13:00:49.633Z,25.40
2019-05-23T13:03:18.979Z,26.00
2019-05-23T13:05:52.497Z,24.40
2019-05-23T13:08:23.581Z,25.10
2019-05-23T13:10:53.046Z,24.20
2019-05-23T13:13:22.924Z,23.50
2019-05-23T13:15:51.693Z,23.50
2019-05-23T13:18:20.496Z,23.20
2019-05-23T13:20:49.412Z,23.00
2019-05-23T13:23:21.131Z,22.60
2019-05-23T13:25:50.108Z,23.70
2019-05-23T13:28:19.884Z,24.50
2019-05-23T13:30:50.517Z,23.90
2019-05-23T13:33:19.748Z,24.00
2019-05-23T13:35:49.378Z,23.80
2019-05-23T13:38:18.113Z,23.30
2019-05-23T13:40:48.290Z,22.30
2019-05-23T13:43:17.341Z,21.80
2019-05-23T13:45:46.330Z,21.70
2019-05-23T13:48:16.677Z,22.10
2019-05-23T13:50:45.608Z,22.40
2019-05-23T13:53:14.311Z,22.10
2019-05-23T13:55:44.740Z,21.50
2019-05-23T13:58:14.686Z,21.20
2019-05-23T14:00:44.740Z,21.40
2019-05-23T14:03:14.030Z,20.90
2019-05-23T14:05:42.996Z,20.60
2019-05-23T14:08:13.668Z,20.50
2019-05-23T14:10:42.487Z,20.20
2019-05-23T14:13:11.298Z,20.50
2019-05-23T14:15:44.867Z,20.50
2019-05-23T14:18:15.248Z,21.20
2019-05-23T14:20:46.538Z,20.70
2019-05-23T14:23:22.970Z,20.60
2019-05-23T14:25:52.722Z,20.50
2019-05-23T14:28:21.591Z,19.50
2019-05-23T14:31:07.660Z,19.50
2019-05-23T14:33:41.172Z,17.80
2019-05-23T14:36:14.308Z,18.00
2019-05-23T14:38:44.204Z,17.70
2019-05-23T14:41:13.527Z,17.60
2019-05-23T14:43:42.413Z,18.40
2019-05-23T14:46:20.107Z,18.70
2019-05-23T14:48:56.263Z,19.90
2019-05-23T14:51:36.619Z,19.70
2019-05-23T14:54:22.723Z,19.60
2019-05-23T14:56:51.598Z,19.80
2019-05-23T14:59:20.503Z,19.90
2019-05-23T15:01:51.597Z,20.00
2019-05-23T15:04:20.539Z,20.80
2019-05-23T15:06:50.072Z,22.00
2019-05-23T15:09:21.355Z,24.10
2019-05-23T15:11:50.651Z,26.30
2019-05-23T15:14:19.422Z,27.90
2019-05-23T15:16:48.166Z,29.60
2019-05-23T15:19:38.749Z,30.70
2019-05-23T15:21:49.128Z,32.00
2019-05-23T15:24:17.872Z,33.70
2019-05-23T15:26:46.685Z,33.50
2019-05-23T15:29:16.900Z,35.80
2019-05-23T15:32:01.109Z,37.60
2019-05-23T15:34:17.611Z,40.10
2019-05-23T15:36:46.458Z,41.90
2019-05-23T15:39:19.589Z,41.90
2019-05-23T15:41:49.043Z,41.90
2019-05-23T15:44:26.617Z,42.30
2019-05-23T15:46:49.765Z,43.30
2019-05-23T15:49:18.598Z,43.90
2019-05-23T15:51:54.179Z,45.50
2019-05-23T15:54:26.364Z,47.10
2019-05-23T15:57:02.277Z,50.10
2019-05-23T15:59:34.083Z,52.30
2019-05-23T16:02:04.641Z,54.20
2019-05-23T16:04:35.279Z,54.70
2019-05-23T16:07:04.831Z,54.40
2019-05-23T16:09:33.662Z,54.90
2019-05-23T16:12:02.397Z,56.20
2019-05-23T16:14:31.276Z,57.50
2019-05-23T16:17:01.090Z,58.40
2019-05-23T16:19:31.729Z,58.80
2019-05-23T16:22:01.912Z,59.20
2019-05-23T16:24:31.864Z,59.50
2019-05-23T16:27:01.246Z,60.00
2019-05-23T16:29:30.847Z,60.90
2019-05-23T16:31:59.581Z,61.60
2019-05-23T16:34:29.678Z,62.00
2019-05-23T16:36:58.412Z,62.60
2019-05-23T16:39:27.212Z,62.80
2019-05-23T16:41:56.230Z,63.30
2019-05-23T16:44:25.041Z,63.80
2019-05-23T16:46:54.987Z,64.10
2019-05-23T16:49:25.341Z,64.50
2019-05-23T16:51:54.220Z,65.30
2019-05-23T16:54:24.539Z,65.50
2019-05-23T16:57:04.156Z,66.10
2019-05-23T16:59:34.477Z,66.50
2019-05-23T17:02:06.316Z,66.50
2019-05-23T17:04:40.294Z,66.40
2019-05-23T17:07:14.619Z,66.20
2019-05-23T17:10:06.941Z,67.00
2019-05-23T17:12:28.585Z,67.20
2019-05-23T17:15:16.428Z,66.90
2019-05-23T17:18:01.392Z,67.40
2019-05-23T17:20:38.615Z,67.70
2019-05-23T17:23:08.808Z,67.70
2019-05-23T17:25:55.284Z,67.80
2019-05-23T17:28:25.849Z,67.20
2019-05-23T17:30:59.022Z,67.60
2019-05-23T17:33:28.061Z,68.80
2019-05-23T17:35:58.426Z,69.60
2019-05-23T17:38:28.771Z,70.40
2019-05-23T17:40:58.907Z,71.30
2019-05-23T17:43:27.727Z,72.00
2019-05-23T17:45:56.563Z,72.10
2019-05-23T17:48:25.273Z,72.30
2019-05-23T17:50:54.997Z,72.60
2019-05-23T17:53:25.743Z,72.30
2019-05-23T17:55:54.982Z,72.00
2019-05-23T17:58:25.250Z,72.10
2019-05-23T18:00:54.525Z,72.00
2019-05-23T18:03:24.958Z,72.00
2019-05-23T18:05:54.425Z,71.90
2019-05-23T18:08:23.396Z,72.50
2019-05-23T18:10:53.260Z,73.20
2019-05-23T18:13:22.185Z,73.70
2019-05-23T18:15:51.262Z,74.10
2019-05-23T18:18:20.617Z,74.00
2019-05-23T18:20:49.602Z,74.10
2019-05-23T18:23:18.723Z,74.60
2019-05-23T18:25:48.484Z,75.30
2019-05-23T18:28:19.060Z,75.40
2019-05-23T18:30:50.021Z,75.40
2019-05-23T18:33:19.710Z,75.70
2019-05-23T18:36:21.786Z,76.30
2019-05-23T18:38:50.525Z,76.50
2019-05-23T18:41:20.892Z,77.10
2019-05-23T18:43:48.873Z,77.40
2019-05-23T18:46:28.414Z,77.60
2019-05-23T18:48:59.319Z,78.10
2019-05-23T18:51:28.915Z,78.30
2019-05-23T18:53:59.545Z,78.30
2019-05-23T18:56:28.643Z,78.60
2019-05-23T18:58:57.506Z,78.70
2019-05-23T19:01:26.934Z,79.00
2019-05-23T19:03:55.997Z,79.00
2019-05-23T19:06:25.007Z,79.30
2019-05-23T19:08:54.508Z,79.70
